createdAt,value
2019-02-27T00:00:56.292Z,5.83
2019-02-27T00:01:56.286Z,5.80
2019-02-27T00:02:56.705Z,5.88
2019-02-27T00:03:56.269Z,5.90
2019-02-27T00:04:56.252Z,5.78
2019-02-27T00:05:56.235Z,5.85
2019-02-27T00:06:56.224Z,5.75
2019-02-27T00:07:56.249Z,5.83
2019-02-27T00:08:57.888Z,5.78
2019-02-27T00:09:56.200Z,5.80
2019-02-27T00:10:56.196Z,5.77
2019-02-27T00:11:56.185Z,5.69
2019-02-27T00:12:56.170Z,5.77
2019-02-27T00:13:58.000Z,5.75
2019-02-27T00:14:56.161Z,5.75
2019-02-27T00:15:56.154Z,5.77
2019-02-27T00:16:56.123Z,5.78
2019-02-27T00:17:56.148Z,5.78
2019-02-27T00:18:58.595Z,5.77
2019-02-27T00:19:56.105Z,5.80
2019-02-27T00:20:56.112Z,5.77
2019-02-27T00:21:56.106Z,5.81
2019-02-27T00:22:56.083Z,5.85
2019-02-27T00:23:56.871Z,5.85
2019-02-27T00:24:56.061Z,5.78
2019-02-27T00:25:56.033Z,5.84
2019-02-27T00:26:56.033Z,5.90
2019-02-27T00:27:56.043Z,5.78
2019-02-27T00:28:56.704Z,5.83
2019-02-27T00:29:55.989Z,5.78
2019-02-27T00:30:55.972Z,5.80
2019-02-27T00:31:55.982Z,5.78
2019-02-27T00:32:55.973Z,5.77
2019-02-27T00:33:59.594Z,5.75
2019-02-27T00:34:55.935Z,5.75
2019-02-27T00:35:55.918Z,5.73
2019-02-27T00:36:55.913Z,5.74
2019-02-27T00:37:55.902Z,5.73
2019-02-27T00:38:57.918Z,5.75
2019-02-27T00:39:55.890Z,5.69
2019-02-27T00:40:55.866Z,5.75
2019-02-27T00:41:55.876Z,5.67
2019-02-27T00:42:55.844Z,5.65
2019-02-27T00:43:55.854Z,5.67
2019-02-27T00:44:55.855Z,5.59
2019-02-27T00:45:55.830Z,5.58
2019-02-27T00:46:55.802Z,5.67
2019-02-27T00:47:55.794Z,5.63
2019-02-27T00:48:59.032Z,5.62
2019-02-27T00:49:55.772Z,5.58
2019-02-27T00:50:55.802Z,5.60
2019-02-27T00:51:55.748Z,5.58
2019-02-27T00:52:55.741Z,5.62
2019-02-27T00:53:55.907Z,5.48
2019-02-27T00:54:55.737Z,5.51
2019-02-27T00:55:55.712Z,5.47
2019-02-27T00:56:55.693Z,5.51
2019-02-27T00:57:55.685Z,5.56
2019-02-27T00:58:59.974Z,5.48
2019-02-27T00:59:56.696Z,5.40
2019-02-27T01:00:55.652Z,5.47
2019-02-27T01:01:55.657Z,5.42
2019-02-27T01:02:55.676Z,5.51
2019-02-27T01:03:59.288Z,5.48
2019-02-27T01:04:56.628Z,5.51
2019-02-27T01:05:55.620Z,5.42
2019-02-27T01:06:55.591Z,5.42
2019-02-27T01:07:55.572Z,5.48
2019-02-27T01:08:55.584Z,5.38
2019-02-27T01:09:55.556Z,5.42
2019-02-27T01:10:55.540Z,5.41
2019-02-27T01:11:55.577Z,5.44
2019-02-27T01:12:57.925Z,5.41
2019-02-27T01:13:55.516Z,5.37
2019-02-27T01:14:55.514Z,5.42
2019-02-27T01:15:55.488Z,5.40
2019-02-27T01:16:55.482Z,5.40
2019-02-27T01:17:57.456Z,5.33
2019-02-27T01:18:55.461Z,5.33
2019-02-27T01:19:55.461Z,5.38
2019-02-27T01:20:55.445Z,5.35
2019-02-27T01:21:55.462Z,5.37
2019-02-27T01:22:55.419Z,5.38
2019-02-27T01:23:55.443Z,5.40
2019-02-27T01:24:55.405Z,5.44
2019-02-27T01:25:56.914Z,5.41
2019-02-27T01:26:55.402Z,5.37
2019-02-27T01:27:55.365Z,5.38
2019-02-27T01:28:55.358Z,5.42
2019-02-27T01:29:55.366Z,5.45
2019-02-27T01:30:55.355Z,5.42
2019-02-27T01:31:57.619Z,5.47
2019-02-27T01:32:55.308Z,5.51
2019-02-27T01:33:55.321Z,5.51
2019-02-27T01:34:55.315Z,5.49
2019-02-27T01:35:55.301Z,5.58
2019-02-27T01:36:58.031Z,5.49
2019-02-27T01:37:55.265Z,5.59
2019-02-27T01:38:55.243Z,5.56
2019-02-27T01:39:55.250Z,5.59
2019-02-27T01:40:55.241Z,5.62
2019-02-27T01:41:57.854Z,5.59
2019-02-27T01:42:55.221Z,5.56
2019-02-27T01:43:55.208Z,5.63
2019-02-27T01:44:55.210Z,5.65
2019-02-27T01:45:55.178Z,5.65
2019-02-27T01:46:55.168Z,5.59
2019-02-27T01:47:55.164Z,5.63
2019-02-27T01:48:55.162Z,5.67
2019-02-27T01:49:55.142Z,5.69
2019-02-27T01:50:55.824Z,5.63
2019-02-27T01:51:55.119Z,5.67
2019-02-27T01:52:55.104Z,5.63
2019-02-27T01:53:55.101Z,5.73
2019-02-27T01:54:55.085Z,5.70
2019-02-27T01:55:56.390Z,5.63
2019-02-27T01:56:55.059Z,5.58
2019-02-27T01:57:55.046Z,5.60
2019-02-27T01:58:55.047Z,5.65
2019-02-27T01:59:55.024Z,5.63
2019-02-27T02:00:56.253Z,5.62
2019-02-27T02:01:55.036Z,5.56
2019-02-27T02:02:54.993Z,5.59
2019-02-27T02:03:54.979Z,5.55
2019-02-27T02:04:54.969Z,5.60
2019-02-27T02:05:58.820Z,5.58
2019-02-27T02:06:54.991Z,5.60
2019-02-27T02:07:54.955Z,5.58
2019-02-27T02:08:54.960Z,5.58
2019-02-27T02:09:55.761Z,5.63
2019-02-27T02:10:54.913Z,5.60
2019-02-27T02:11:54.903Z,5.58
2019-02-27T02:12:54.921Z,5.63
2019-02-27T02:13:54.881Z,5.59
2019-02-27T02:14:54.996Z,5.60
2019-02-27T02:15:54.867Z,5.58
2019-02-27T02:16:54.853Z,5.60
2019-02-27T02:17:54.854Z,5.58
2019-02-27T02:18:54.828Z,5.58
2019-02-27T02:19:54.816Z,5.65
2019-02-27T02:20:54.850Z,5.75
2019-02-27T02:21:54.793Z,5.69
2019-02-27T02:22:54.813Z,5.69
2019-02-27T02:23:54.776Z,5.77
2019-02-27T02:24:54.872Z,5.75
2019-02-27T02:25:54.760Z,5.74
2019-02-27T02:26:54.746Z,5.75
2019-02-27T02:27:54.771Z,5.74
2019-02-27T02:28:54.738Z,5.75
2019-02-27T02:29:54.775Z,5.78
2019-02-27T02:30:54.698Z,5.75
2019-02-27T02:31:54.686Z,5.75
2019-02-27T02:32:54.698Z,5.77
2019-02-27T02:33:54.699Z,5.73
2019-02-27T02:34:54.652Z,5.74
2019-02-27T02:35:54.650Z,5.73
2019-02-27T02:37:01.232Z,5.63
2019-02-27T02:37:55.637Z,5.73
2019-02-27T02:38:54.629Z,5.70
2019-02-27T02:39:55.360Z,5.65
2019-02-27T02:40:54.595Z,5.75
2019-02-27T02:41:54.588Z,5.78
2019-02-27T02:42:54.577Z,5.77
2019-02-27T02:43:54.602Z,5.73
2019-02-27T02:44:57.719Z,5.73
2019-02-27T02:45:54.541Z,5.77
2019-02-27T02:46:54.526Z,5.80
2019-02-27T02:47:55.817Z,5.75
2019-02-27T02:48:54.502Z,5.74
2019-02-27T02:49:54.534Z,5.73
2019-02-27T02:50:55.104Z,5.73
2019-02-27T02:51:54.509Z,5.77
2019-02-27T02:52:54.467Z,5.75
2019-02-27T02:54:00.415Z,5.75
2019-02-27T02:54:55.501Z,5.70
2019-02-27T02:55:54.437Z,5.73
2019-02-27T02:57:00.217Z,5.75
2019-02-27T02:57:55.444Z,5.73
2019-02-27T02:58:54.401Z,5.78
2019-02-27T02:59:59.427Z,5.80
2019-02-27T03:00:55.371Z,5.65
2019-02-27T03:01:54.382Z,5.74
2019-02-27T03:02:57.603Z,5.69
2019-02-27T03:03:55.358Z,5.65
2019-02-27T03:04:54.373Z,5.66
2019-02-27T03:05:58.486Z,5.62
2019-02-27T03:06:55.315Z,5.59
2019-02-27T03:07:54.316Z,5.59
2019-02-27T03:08:55.428Z,5.66
2019-02-27T03:09:54.288Z,5.59
2019-02-27T03:10:54.297Z,5.60
2019-02-27T03:11:55.635Z,5.62
2019-02-27T03:12:54.257Z,5.63
2019-02-27T03:13:54.271Z,5.52
2019-02-27T03:14:54.543Z,5.52
2019-02-27T03:15:54.261Z,5.58
2019-02-27T03:16:54.247Z,5.56
2019-02-27T03:17:55.158Z,5.51
2019-02-27T03:18:54.187Z,5.69
2019-02-27T03:19:54.187Z,5.60
2019-02-27T03:20:54.167Z,5.56
2019-02-27T03:21:54.184Z,5.60
2019-02-27T03:22:54.172Z,5.66
2019-02-27T03:23:54.138Z,5.59
2019-02-27T03:24:54.126Z,5.66
2019-02-27T03:25:54.124Z,5.63
2019-02-27T03:26:54.132Z,5.65
2019-02-27T03:27:54.088Z,5.63
2019-02-27T03:28:54.094Z,5.63
2019-02-27T03:29:54.074Z,5.65
2019-02-27T03:30:54.102Z,5.63
2019-02-27T03:32:00.071Z,5.62
2019-02-27T03:32:55.051Z,5.59
2019-02-27T03:33:54.042Z,5.59
2019-02-27T03:34:54.027Z,5.67
2019-02-27T03:35:54.043Z,5.60
2019-02-27T03:36:54.015Z,5.62
2019-02-27T03:37:53.997Z,5.62
2019-02-27T03:38:55.899Z,5.59
2019-02-27T03:39:54.978Z,5.63
2019-02-27T03:40:53.985Z,5.69
2019-02-27T03:41:58.492Z,5.63
2019-02-27T03:42:54.980Z,5.73
2019-02-27T03:43:53.928Z,5.60
2019-02-27T03:44:56.359Z,5.59
2019-02-27T03:45:53.896Z,5.56
2019-02-27T03:46:53.906Z,5.52
2019-02-27T03:47:53.883Z,5.59
2019-02-27T03:48:53.889Z,5.59
2019-02-27T03:49:53.869Z,5.55
2019-02-27T03:50:53.865Z,5.60
2019-02-27T03:51:59.947Z,5.60
2019-02-27T03:52:54.838Z,5.58
2019-02-27T03:53:53.868Z,5.55
2019-02-27T03:54:56.956Z,5.60
2019-02-27T03:55:53.801Z,5.51
2019-02-27T03:56:53.790Z,5.48
2019-02-27T03:57:55.278Z,5.58
2019-02-27T03:58:53.814Z,5.49
2019-02-27T03:59:53.763Z,5.52
2019-02-27T04:00:54.218Z,5.51
2019-02-27T04:01:53.751Z,5.49
2019-02-27T04:02:53.777Z,5.51
2019-02-27T04:03:55.326Z,5.56
2019-02-27T04:04:53.733Z,5.56
2019-02-27T04:05:53.706Z,5.58
2019-02-27T04:06:56.303Z,5.58
2019-02-27T04:07:53.681Z,5.59
2019-02-27T04:08:53.655Z,5.63
2019-02-27T04:09:55.384Z,5.56
2019-02-27T04:10:53.679Z,5.62
2019-02-27T04:11:53.630Z,5.60
2019-02-27T04:12:53.618Z,5.65
2019-02-27T04:13:53.615Z,5.65
2019-02-27T04:14:53.669Z,5.55
2019-02-27T04:15:54.437Z,5.56
2019-02-27T04:16:53.637Z,5.51
2019-02-27T04:17:53.561Z,5.51
2019-02-27T04:18:53.552Z,5.49
2019-02-27T04:19:53.562Z,5.55
2019-02-27T04:20:53.534Z,5.52
2019-02-27T04:21:53.537Z,5.48
2019-02-27T04:22:53.513Z,5.47
2019-02-27T04:23:53.513Z,5.42
2019-02-27T04:24:56.610Z,5.45
2019-02-27T04:25:53.505Z,5.44
2019-02-27T04:26:53.491Z,5.37
2019-02-27T04:27:55.599Z,5.41
2019-02-27T04:28:53.452Z,5.27
2019-02-27T04:29:53.433Z,5.27
2019-02-27T04:30:53.475Z,5.30
2019-02-27T04:31:53.421Z,5.22
2019-02-27T04:32:53.415Z,5.26
2019-02-27T04:33:53.400Z,5.29
2019-02-27T04:34:53.393Z,5.22
2019-02-27T04:35:53.371Z,5.27
2019-02-27T04:36:53.395Z,5.23
2019-02-27T04:37:54.383Z,5.30
2019-02-27T04:38:53.351Z,5.27
2019-02-27T04:39:53.345Z,5.20
2019-02-27T04:40:53.392Z,5.27
2019-02-27T04:41:53.308Z,5.26
2019-02-27T04:42:53.324Z,5.26
2019-02-27T04:43:53.288Z,5.23
2019-02-27T04:44:53.303Z,5.24
2019-02-27T04:45:53.278Z,5.22
2019-02-27T04:46:55.103Z,5.26
2019-02-27T04:47:53.246Z,5.24
2019-02-27T04:48:53.262Z,5.22
2019-02-27T04:49:53.220Z,5.20
2019-02-27T04:50:53.233Z,5.19
2019-02-27T04:51:53.204Z,5.08
2019-02-27T04:52:53.200Z,5.17
2019-02-27T04:53:53.240Z,5.15
2019-02-27T04:54:53.181Z,5.20
2019-02-27T04:55:53.164Z,5.09
2019-02-27T04:56:55.040Z,5.15
2019-02-27T04:57:53.237Z,5.12
2019-02-27T04:58:53.191Z,5.11
2019-02-27T04:59:53.233Z,5.15
2019-02-27T05:00:53.105Z,5.12
2019-02-27T05:01:53.109Z,5.15
2019-02-27T05:02:53.426Z,5.08
2019-02-27T05:03:53.124Z,5.11
2019-02-27T05:04:53.068Z,5.09
2019-02-27T05:05:53.086Z,5.12
2019-02-27T05:06:53.141Z,5.09
2019-02-27T05:07:54.319Z,5.09
2019-02-27T05:08:53.054Z,5.17
2019-02-27T05:09:53.022Z,5.12
2019-02-27T05:10:52.999Z,5.11
2019-02-27T05:11:53.460Z,5.08
2019-02-27T05:12:53.114Z,5.20
2019-02-27T05:13:54.273Z,5.11
2019-02-27T05:14:52.971Z,5.05
2019-02-27T05:15:53.020Z,5.19
2019-02-27T05:16:53.007Z,5.12
2019-02-27T05:17:55.484Z,5.04
2019-02-27T05:18:52.937Z,5.08
2019-02-27T05:19:52.924Z,5.05
2019-02-27T05:20:52.915Z,5.06
2019-02-27T05:21:53.138Z,5.05
2019-02-27T05:22:52.929Z,5.08
2019-02-27T05:23:52.872Z,5.06
2019-02-27T05:24:52.867Z,5.08
2019-02-27T05:25:52.874Z,5.06
2019-02-27T05:26:52.839Z,5.04
2019-02-27T05:27:52.825Z,5.01
2019-02-27T05:28:52.886Z,4.99
2019-02-27T05:29:52.799Z,5.06
2019-02-27T05:30:52.798Z,5.06
2019-02-27T05:31:53.257Z,4.94
2019-02-27T05:32:52.774Z,4.90
2019-02-27T05:33:52.823Z,4.94
2019-02-27T05:34:52.763Z,4.99
2019-02-27T05:35:57.019Z,4.96
2019-02-27T05:36:53.743Z,4.93
2019-02-27T05:37:52.748Z,4.93
2019-02-27T05:38:52.709Z,4.96
2019-02-27T05:39:52.717Z,4.87
2019-02-27T05:40:52.687Z,4.86
2019-02-27T05:41:52.695Z,4.86
2019-02-27T05:42:52.673Z,4.71
2019-02-27T05:43:52.679Z,4.74
2019-02-27T05:44:55.599Z,4.74
2019-02-27T05:45:52.685Z,4.79
2019-02-27T05:46:52.624Z,4.71
2019-02-27T05:47:52.623Z,4.84
2019-02-27T05:48:53.357Z,4.75
2019-02-27T05:49:52.599Z,4.69
2019-02-27T05:50:52.633Z,4.72
2019-02-27T05:51:52.641Z,4.83
2019-02-27T05:52:52.582Z,4.74
2019-02-27T05:53:52.545Z,4.74
2019-02-27T05:54:52.559Z,4.87
2019-02-27T05:55:52.550Z,4.84
2019-02-27T05:56:52.575Z,4.72
2019-02-27T05:57:52.535Z,4.72
2019-02-27T05:58:56.115Z,4.72
2019-02-27T05:59:52.483Z,4.72
2019-02-27T06:00:52.490Z,4.80
2019-02-27T06:01:52.478Z,4.83
2019-02-27T06:02:52.488Z,4.77
2019-02-27T06:03:53.007Z,4.75
2019-02-27T06:04:52.437Z,4.83
2019-02-27T06:05:52.444Z,4.79
2019-02-27T06:06:52.447Z,4.75
2019-02-27T06:07:52.440Z,4.75
2019-02-27T06:08:52.406Z,4.84
2019-02-27T06:09:52.437Z,4.77
2019-02-27T06:10:56.037Z,4.75
2019-02-27T06:11:52.363Z,4.83
2019-02-27T06:12:52.377Z,4.94
2019-02-27T06:13:52.372Z,4.96
2019-02-27T06:14:54.809Z,4.99
2019-02-27T06:15:52.336Z,4.99
2019-02-27T06:16:52.334Z,5.01
2019-02-27T06:17:52.323Z,4.99
2019-02-27T06:18:56.062Z,4.97
2019-02-27T06:19:52.286Z,4.99
2019-02-27T06:20:52.270Z,5.08
2019-02-27T06:21:56.068Z,5.08
2019-02-27T06:22:52.243Z,5.05
2019-02-27T06:23:52.232Z,5.05
2019-02-27T06:24:52.263Z,5.14
2019-02-27T06:25:52.215Z,5.17
2019-02-27T06:26:52.211Z,5.08
2019-02-27T06:27:52.204Z,5.15
2019-02-27T06:28:52.181Z,5.23
2019-02-27T06:29:52.173Z,5.17
2019-02-27T06:30:52.199Z,5.22
2019-02-27T06:31:52.156Z,5.19
2019-02-27T06:32:52.146Z,5.22
2019-02-27T06:33:52.143Z,5.15
2019-02-27T06:34:52.201Z,5.30
2019-02-27T06:35:52.147Z,5.24
2019-02-27T06:36:52.116Z,5.27
2019-02-27T06:37:52.115Z,5.24
2019-02-27T06:38:52.087Z,5.22
2019-02-27T06:39:54.101Z,5.30
2019-02-27T06:40:52.057Z,5.30
2019-02-27T06:41:52.110Z,5.30
2019-02-27T06:42:53.887Z,5.30
2019-02-27T06:43:52.032Z,5.30
2019-02-27T06:44:52.029Z,5.17
2019-02-27T06:45:54.150Z,5.22
2019-02-27T06:46:53.914Z,5.33
2019-02-27T06:47:52.016Z,5.35
2019-02-27T06:48:51.975Z,5.19
2019-02-27T06:49:52.575Z,5.35
2019-02-27T06:50:51.952Z,5.29
2019-02-27T06:51:51.982Z,5.26
2019-02-27T06:52:51.934Z,5.33
2019-02-27T06:53:51.937Z,5.42
2019-02-27T06:54:52.845Z,5.40
2019-02-27T06:55:51.909Z,5.40
2019-02-27T06:56:51.911Z,5.40
2019-02-27T06:57:51.921Z,5.52
2019-02-27T06:58:51.926Z,5.49
2019-02-27T06:59:51.942Z,5.51
2019-02-27T07:00:51.842Z,5.60
2019-02-27T07:01:51.845Z,5.51
2019-02-27T07:02:55.236Z,5.59
2019-02-27T07:03:51.821Z,5.56
2019-02-27T07:04:51.845Z,5.65
2019-02-27T07:05:51.790Z,5.65
2019-02-27T07:06:55.226Z,5.58
2019-02-27T07:07:51.927Z,5.63
2019-02-27T07:08:51.766Z,5.67
2019-02-27T07:09:51.761Z,5.56
2019-02-27T07:10:51.768Z,5.60
2019-02-27T07:11:51.747Z,5.73
2019-02-27T07:12:54.471Z,5.77
2019-02-27T07:13:51.734Z,5.63
2019-02-27T07:14:51.716Z,5.58
2019-02-27T07:15:51.699Z,5.63
2019-02-27T07:16:51.726Z,5.78
2019-02-27T07:17:51.693Z,5.73
2019-02-27T07:18:51.725Z,5.83
2019-02-27T07:19:51.651Z,5.88
2019-02-27T07:20:51.642Z,5.87
2019-02-27T07:21:51.672Z,5.92
2019-02-27T07:22:51.633Z,5.99
2019-02-27T07:23:51.607Z,5.92
2019-02-27T07:24:51.600Z,5.92
2019-02-27T07:25:51.599Z,5.90
2019-02-27T07:26:51.642Z,5.95
2019-02-27T07:27:51.592Z,6.10
2019-02-27T07:28:51.586Z,5.96
2019-02-27T07:29:51.545Z,6.03
2019-02-27T07:30:51.526Z,6.01
2019-02-27T07:31:52.048Z,6.10
2019-02-27T07:32:51.511Z,6.03
2019-02-27T07:33:51.546Z,6.02
2019-02-27T07:34:51.521Z,6.08
2019-02-27T07:35:51.480Z,6.08
2019-02-27T07:36:51.475Z,6.06
2019-02-27T07:37:51.464Z,6.06
2019-02-27T07:38:51.530Z,6.13
2019-02-27T07:39:51.437Z,6.13
2019-02-27T07:40:51.441Z,6.03
2019-02-27T07:41:51.417Z,6.11
2019-02-27T07:42:51.418Z,6.17
2019-02-27T07:43:51.408Z,6.17
2019-02-27T07:44:51.389Z,6.19
2019-02-27T07:45:51.381Z,6.25
2019-02-27T07:46:51.383Z,6.25
2019-02-27T07:47:51.354Z,6.27
2019-02-27T07:48:51.388Z,6.32
2019-02-27T07:49:51.337Z,6.28
2019-02-27T07:50:51.345Z,6.24
2019-02-27T07:51:51.322Z,6.38
2019-02-27T07:52:52.204Z,6.24
2019-02-27T07:53:53.557Z,6.30
2019-02-27T07:54:51.330Z,6.25
2019-02-27T07:55:51.287Z,6.24
2019-02-27T07:56:51.255Z,6.32
2019-02-27T07:57:51.248Z,6.38
2019-02-27T07:58:51.260Z,6.28
2019-02-27T07:59:51.224Z,6.27
2019-02-27T08:00:51.229Z,6.32
2019-02-27T08:01:51.216Z,6.32
2019-02-27T08:02:51.204Z,6.35
2019-02-27T08:03:51.202Z,6.32
2019-02-27T08:04:51.722Z,6.35
2019-02-27T08:05:51.173Z,6.33
2019-02-27T08:06:51.151Z,6.35
2019-02-27T08:07:51.163Z,6.39
2019-02-27T08:08:51.165Z,6.35
2019-02-27T08:09:51.134Z,6.42
2019-02-27T08:10:51.105Z,6.42
2019-02-27T08:11:51.095Z,6.53
2019-02-27T08:12:55.574Z,6.50
2019-02-27T08:13:52.125Z,6.46
2019-02-27T08:14:51.078Z,6.48
2019-02-27T08:15:51.062Z,6.54
2019-02-27T08:16:51.064Z,6.53
2019-02-27T08:17:51.060Z,6.57
2019-02-27T08:18:51.050Z,6.64
2019-02-27T08:19:51.041Z,6.61
2019-02-27T08:20:54.206Z,6.68
2019-02-27T08:21:50.990Z,6.69
2019-02-27T08:22:50.977Z,6.65
2019-02-27T08:23:51.008Z,6.63
2019-02-27T08:24:50.998Z,6.71
2019-02-27T08:25:50.938Z,6.76
2019-02-27T08:26:50.940Z,6.82
2019-02-27T08:27:50.930Z,6.82
2019-02-27T08:28:50.922Z,6.91
2019-02-27T08:29:50.909Z,6.94
2019-02-27T08:30:50.931Z,6.94
2019-02-27T08:31:50.881Z,6.94
2019-02-27T08:32:50.873Z,6.96
2019-02-27T08:33:50.874Z,6.93
2019-02-27T08:34:50.874Z,6.96
2019-02-27T08:35:51.186Z,6.99
2019-02-27T08:36:50.862Z,6.93
2019-02-27T08:37:50.842Z,7.04
2019-02-27T08:38:50.811Z,7.04
2019-02-27T08:39:50.836Z,7.08
2019-02-27T08:40:50.783Z,7.01
2019-02-27T08:41:50.826Z,7.16
2019-02-27T08:42:50.779Z,7.14
2019-02-27T08:43:50.790Z,7.18
2019-02-27T08:44:50.788Z,7.27
2019-02-27T08:45:50.747Z,7.29
2019-02-27T08:46:50.752Z,7.29
2019-02-27T08:47:50.739Z,7.27
2019-02-27T08:48:50.756Z,7.34
2019-02-27T08:49:50.692Z,7.29
2019-02-27T08:50:50.690Z,7.37
2019-02-27T08:51:50.702Z,7.37
2019-02-27T08:53:51.751Z,7.36
2019-02-27T08:54:50.632Z,7.34
2019-02-27T08:55:50.637Z,7.34
2019-02-27T08:56:50.623Z,7.33
2019-02-27T08:57:55.588Z,7.48
2019-02-27T08:58:51.631Z,7.42
2019-02-27T08:59:50.581Z,7.41
2019-02-27T09:00:51.841Z,7.37
2019-02-27T09:01:55.432Z,7.48
2019-02-27T09:02:51.548Z,7.37
2019-02-27T09:03:50.587Z,7.37
2019-02-27T09:04:50.543Z,7.47
2019-02-27T09:05:51.006Z,7.42
2019-02-27T09:06:50.506Z,7.50
2019-02-27T09:07:50.500Z,7.48
2019-02-27T09:08:50.481Z,7.58
2019-02-27T09:09:51.612Z,7.66
2019-02-27T09:10:50.459Z,7.71
2019-02-27T09:11:50.457Z,7.81
2019-02-27T09:12:51.829Z,7.81
2019-02-27T09:13:50.434Z,7.86
2019-02-27T09:14:50.464Z,7.79
2019-02-27T09:15:50.506Z,7.84
2019-02-27T09:16:50.493Z,7.84
2019-02-27T09:17:50.427Z,7.85
2019-02-27T09:18:50.381Z,7.76
2019-02-27T09:19:50.372Z,7.77
2019-02-27T09:20:53.123Z,7.79
2019-02-27T09:21:50.362Z,7.77
2019-02-27T09:22:50.375Z,7.79
2019-02-27T09:23:50.344Z,7.73
2019-02-27T09:24:50.314Z,7.74
2019-02-27T09:25:57.066Z,7.82
2019-02-27T09:26:51.316Z,7.76
2019-02-27T09:27:50.301Z,7.66
2019-02-27T09:28:50.303Z,7.74
2019-02-27T09:29:52.342Z,7.79
2019-02-27T09:30:50.261Z,7.81
2019-02-27T09:31:50.963Z,7.86
2019-02-27T09:32:50.239Z,7.79
2019-02-27T09:33:53.060Z,7.91
2019-02-27T09:34:50.233Z,7.88
2019-02-27T09:35:50.194Z,7.92
2019-02-27T09:36:50.202Z,7.88
2019-02-27T09:37:51.329Z,7.94
2019-02-27T09:38:50.154Z,7.94
2019-02-27T09:39:50.154Z,7.86
2019-02-27T09:40:50.154Z,8.02
2019-02-27T09:41:51.266Z,8.10
2019-02-27T09:42:52.740Z,8.14
2019-02-27T09:43:50.137Z,8.14
2019-02-27T09:44:50.125Z,8.17
2019-02-27T09:45:50.113Z,8.28
2019-02-27T09:46:52.427Z,8.31
2019-02-27T09:47:50.062Z,8.36
2019-02-27T09:48:50.102Z,8.36
2019-02-27T09:49:50.040Z,8.39
2019-02-27T09:50:50.052Z,8.37
2019-02-27T09:51:50.042Z,8.36
2019-02-27T09:52:50.003Z,8.34
2019-02-27T09:53:50.004Z,8.39
2019-02-27T09:54:50.016Z,8.45
2019-02-27T09:55:53.510Z,8.43
2019-02-27T09:56:49.989Z,8.49
2019-02-27T09:57:49.958Z,8.58
2019-02-27T09:58:49.942Z,8.57
2019-02-27T09:59:51.166Z,8.64
2019-02-27T10:00:49.961Z,8.68
2019-02-27T10:01:49.931Z,8.73
2019-02-27T10:02:49.903Z,8.68
2019-02-27T10:03:52.086Z,8.78
2019-02-27T10:04:49.900Z,8.78
2019-02-27T10:05:49.876Z,8.88
2019-02-27T10:06:49.890Z,8.88
2019-02-27T10:07:51.348Z,8.88
2019-02-27T10:08:49.847Z,8.91
2019-02-27T10:09:49.834Z,9.04
2019-02-27T10:10:49.850Z,9.20
2019-02-27T10:11:52.249Z,9.22
2019-02-27T10:12:49.825Z,9.30
2019-02-27T10:13:49.784Z,9.38
2019-02-27T10:14:50.272Z,9.37
2019-02-27T10:15:49.768Z,9.42
2019-02-27T10:16:49.802Z,9.49
2019-02-27T10:17:49.761Z,9.50
2019-02-27T10:18:49.726Z,9.50
2019-02-27T10:19:49.720Z,9.55
2019-02-27T10:20:49.739Z,9.53
2019-02-27T10:21:49.737Z,9.52
2019-02-27T10:22:49.711Z,9.53
2019-02-27T10:23:49.698Z,9.59
2019-02-27T10:24:49.660Z,9.62
2019-02-27T10:25:49.994Z,9.68
2019-02-27T10:26:49.645Z,9.75
2019-02-27T10:27:49.659Z,9.70
2019-02-27T10:28:49.637Z,9.83
2019-02-27T10:29:49.683Z,9.83
2019-02-27T10:30:49.920Z,9.98
2019-02-27T10:31:49.585Z,9.92
2019-02-27T10:32:49.592Z,9.92
2019-02-27T10:33:49.580Z,10.01
2019-02-27T10:34:51.022Z,10.04
2019-02-27T10:35:49.560Z,10.16
2019-02-27T10:36:49.550Z,10.25
2019-02-27T10:37:51.131Z,10.25
2019-02-27T10:38:49.532Z,10.35
2019-02-27T10:39:49.493Z,10.32
2019-02-27T10:40:49.539Z,10.22
2019-02-27T10:41:50.555Z,10.29
2019-02-27T10:42:50.412Z,10.34
2019-02-27T10:43:49.451Z,10.18
2019-02-27T10:44:49.471Z,10.29
2019-02-27T10:45:49.508Z,10.42
2019-02-27T10:46:49.414Z,10.47
2019-02-27T10:47:49.413Z,10.51
2019-02-27T10:48:49.425Z,10.57
2019-02-27T10:49:49.399Z,10.55
2019-02-27T10:50:49.389Z,10.47
2019-02-27T10:51:49.377Z,10.43
2019-02-27T10:52:50.128Z,10.42
2019-02-27T10:53:50.368Z,10.49
2019-02-27T10:54:49.342Z,10.49
2019-02-27T10:55:50.024Z,10.49
2019-02-27T10:56:49.355Z,10.65
2019-02-27T10:57:49.293Z,10.73
2019-02-27T10:58:49.289Z,10.84
2019-02-27T10:59:49.271Z,10.87
2019-02-27T11:00:49.337Z,10.93
2019-02-27T11:01:49.292Z,10.90
2019-02-27T11:02:52.275Z,10.94
2019-02-27T11:03:49.260Z,11.06
2019-02-27T11:04:50.039Z,11.06
2019-02-27T11:05:52.317Z,11.08
2019-02-27T11:06:50.279Z,11.08
2019-02-27T11:07:50.142Z,11.24
2019-02-27T11:08:49.187Z,11.24
2019-02-27T11:09:49.167Z,11.23
2019-02-27T11:10:49.152Z,11.42
2019-02-27T11:11:53.670Z,11.49
2019-02-27T11:12:49.146Z,11.46
2019-02-27T11:13:51.715Z,11.56
2019-02-27T11:14:50.241Z,11.62
2019-02-27T11:15:49.138Z,11.67
2019-02-27T11:16:49.099Z,11.82
2019-02-27T11:17:49.121Z,11.69
2019-02-27T11:18:49.080Z,11.84
2019-02-27T11:19:49.061Z,11.72
2019-02-27T11:20:49.100Z,11.66
2019-02-27T11:21:49.071Z,11.85
2019-02-27T11:22:49.066Z,11.93
2019-02-27T11:23:49.045Z,11.98
2019-02-27T11:24:49.516Z,11.96
2019-02-27T11:25:49.015Z,12.13
2019-02-27T11:26:48.977Z,12.16
2019-02-27T11:27:48.998Z,12.22
2019-02-27T11:28:48.958Z,12.26
2019-02-27T11:29:49.028Z,12.40
2019-02-27T11:30:50.959Z,12.41
2019-02-27T11:31:48.932Z,12.48
2019-02-27T11:32:48.936Z,12.52
2019-02-27T11:33:48.947Z,12.54
2019-02-27T11:34:49.219Z,12.61
2019-02-27T11:35:48.885Z,12.56
2019-02-27T11:36:48.871Z,12.54
2019-02-27T11:37:48.877Z,12.56
2019-02-27T11:38:48.878Z,12.56
2019-02-27T11:39:48.894Z,12.52
2019-02-27T11:40:48.846Z,12.52
2019-02-27T11:41:49.186Z,12.56
2019-02-27T11:42:48.813Z,12.62
2019-02-27T11:43:48.879Z,12.62
2019-02-27T11:44:49.607Z,12.76
2019-02-27T11:45:48.794Z,12.70
2019-02-27T11:46:58.407Z,12.80
2019-02-27T11:47:49.850Z,12.79
2019-02-27T11:48:48.757Z,13.03
2019-02-27T11:49:48.765Z,12.96
2019-02-27T11:50:48.816Z,13.03
2019-02-27T11:51:50.635Z,13.10
2019-02-27T11:52:49.288Z,13.16
2019-02-27T11:53:48.697Z,13.28
2019-02-27T11:54:48.714Z,13.36
2019-02-27T11:55:48.705Z,13.36
2019-02-27T11:56:51.490Z,13.43
2019-02-27T11:57:49.648Z,13.38
2019-02-27T11:58:48.653Z,13.48
2019-02-27T11:59:48.635Z,13.62
2019-02-27T12:00:48.628Z,13.65
2019-02-27T12:01:48.620Z,13.55
2019-02-27T12:02:48.648Z,13.54
2019-02-27T12:03:48.597Z,13.65
2019-02-27T12:04:48.569Z,13.79
2019-02-27T12:05:48.587Z,13.86
2019-02-27T12:06:48.569Z,13.80
2019-02-27T12:07:51.107Z,13.76
2019-02-27T12:08:48.576Z,14.02
2019-02-27T12:09:48.526Z,13.94
2019-02-27T12:10:48.564Z,13.93
2019-02-27T12:11:49.395Z,13.96
2019-02-27T12:12:48.548Z,13.94
2019-02-27T12:13:48.484Z,14.09
2019-02-27T12:14:48.486Z,14.13
2019-02-27T12:15:48.455Z,14.23
2019-02-27T12:16:48.623Z,14.36
2019-02-27T12:17:48.429Z,14.27
2019-02-27T12:18:48.454Z,14.30
2019-02-27T12:19:48.427Z,14.34
2019-02-27T12:20:52.901Z,14.38
2019-02-27T12:21:48.401Z,14.30
2019-02-27T12:22:48.382Z,14.30
2019-02-27T12:23:48.425Z,14.35
2019-02-27T12:24:50.323Z,14.36
2019-02-27T12:25:48.389Z,14.39
2019-02-27T12:26:48.345Z,14.45
2019-02-27T12:27:49.636Z,14.48
2019-02-27T12:28:52.413Z,14.54
2019-02-27T12:29:48.303Z,14.39
2019-02-27T12:30:48.320Z,14.46
2019-02-27T12:31:48.985Z,14.64
2019-02-27T12:32:48.316Z,14.52
2019-02-27T12:33:48.260Z,14.66
2019-02-27T12:34:48.255Z,14.64
2019-02-27T12:35:48.236Z,14.64
2019-02-27T12:36:49.970Z,14.64
2019-02-27T12:37:48.252Z,14.63
2019-02-27T12:38:48.211Z,14.66
2019-02-27T12:39:49.632Z,14.83
2019-02-27T12:40:48.203Z,14.91
2019-02-27T12:41:48.172Z,14.93
2019-02-27T12:42:49.770Z,14.90
2019-02-27T12:43:52.113Z,14.97
2019-02-27T12:44:48.146Z,15.05
2019-02-27T12:45:48.137Z,15.07
2019-02-27T12:46:48.149Z,15.04
2019-02-27T12:47:48.159Z,15.15
2019-02-27T12:48:48.126Z,15.13
2019-02-27T12:49:48.090Z,15.19
2019-02-27T12:50:48.075Z,15.19
2019-02-27T12:51:48.070Z,15.18
2019-02-27T12:52:48.248Z,15.22
2019-02-27T12:53:48.040Z,15.18
2019-02-27T12:54:48.519Z,15.16
2019-02-27T12:55:48.030Z,15.30
2019-02-27T12:56:48.028Z,15.27
2019-02-27T12:57:51.911Z,15.43
2019-02-27T12:58:47.983Z,15.46
2019-02-27T12:59:48.037Z,15.56
2019-02-27T13:00:47.993Z,15.51
2019-02-27T13:01:50.768Z,15.60
2019-02-27T13:02:47.947Z,15.55
2019-02-27T13:03:47.959Z,15.55
2019-02-27T13:04:52.323Z,15.62
2019-02-27T13:05:47.937Z,15.52
2019-02-27T13:06:47.894Z,15.64
2019-02-27T13:07:47.918Z,15.60
2019-02-27T13:08:52.614Z,15.62
2019-02-27T13:09:48.863Z,15.66
2019-02-27T13:10:48.699Z,15.74
2019-02-27T13:11:47.868Z,15.85
2019-02-27T13:12:49.260Z,15.80
2019-02-27T13:13:47.823Z,15.84
2019-02-27T13:14:47.817Z,15.88